Time;durP1;ratioP1;P1;durP2;ratioP2;P2;SDS_P1;SDS_P2;PMS_P1;PMS_P2;Temp;Humidity;BMP_temperature;BMP_pressure;BME280_temperature;BME280_humidity;BME280_pressure;Samples;Min_cycle;Max_cycle;Signal;HPM_P1;HPM_P2
2022/09/29 00:01:49;;;;;;;2.97;1.73;;;;;;;;;;4986776;28;20038;-62
2022/09/29 00:04:14;;;;;;;2.20;1.95;;;;;;;;;;4987176;28;20042;-62
2022/09/29 00:06:40;;;;;;;3.60;1.70;;;;;;;;;;4985695;28;20129;-62
2022/09/29 00:09:05;;;;;;;4.47;1.90;;;;;;;;;;4975194;28;20456;-62
2022/09/29 00:11:31;;;;;;;4.32;1.80;;;;;;;;;;4982520;28;20489;-62
2022/09/29 00:13:57;;;;;;;5.03;1.98;;;;;;;;;;4977530;28;20080;-65
2022/09/29 00:16:23;;;;;;;4.82;1.80;;;;;;;;;;4980339;28;20165;-71
2022/09/29 00:18:48;;;;;;;4.95;1.70;;;;;;;;;;4964878;28;20117;-62
2022/09/29 00:21:18;;;;;;;3.38;1.50;;;;;;;;;;4981125;28;20464;-62
2022/09/29 00:23:44;;;;;;;3.78;1.80;;;;;;;;;;4978722;28;20101;-62
2022/09/29 00:26:19;;;;;;;3.95;1.90;;;;;;;;;;4982054;28;20038;-62
2022/09/29 00:28:47;;;;;;;2.70;1.73;;;;;;;;;;4984051;28;20062;-62
2022/09/29 00:31:13;;;;;;;3.92;2.03;;;;;;;;;;4976813;28;20050;-62
2022/09/29 00:33:39;;;;;;;3.78;1.63;;;;;;;;;;4979437;28;21374;-62
2022/09/29 00:36:10;;;;;;;2.47;1.67;;;;;;;;;;4985030;28;20046;-62
2022/09/29 00:38:36;;;;;;;3.67;1.50;;;;;;;;;;4980296;28;20031;-62
2022/09/29 00:41:02;;;;;;;2.17;1.70;;;;;;;;;;4982040;28;20030;-62
2022/09/29 00:44:01;;;;;;;4.78;1.50;;;;;;;;;;4981358;28;20401;-62
2022/09/29 00:46:36;;;;;;;7.45;1.60;;;;;;;;;;4881531;28;20042;-64
2022/09/29 00:49:09;;;;;;;3.70;1.58;;;;;;;;;;4984126;28;20157;-61
2022/09/29 00:51:37;;;;;;;3.42;1.70;;;;;;;;;;4980500;28;20085;-62
2022/09/29 00:54:04;;;;;;;3.83;1.50;;;;;;;;;;4984677;28;20057;-62
2022/09/29 00:56:31;;;;;;;4.10;1.70;;;;;;;;;;4988251;28;20064;-61
2022/09/29 00:59:02;;;;;;;2.67;1.45;;;;;;;;;;4981366;28;20037;-63
2022/09/29 01:01:30;;;;;;;2.63;1.67;;;;;;;;;;4984738;28;20126;-69
2022/09/29 01:04:02;;;;;;;4.00;1.45;;;;;;;;;;4982754;28;20054;-70
2022/09/29 01:06:50;;;;;;;2.80;1.40;;;;;;;;;;4983092;28;20046;-69
2022/09/29 01:09:24;;;;;;;3.95;1.58;;;;;;;;;;4979639;28;20059;-71
2022/09/29 01:11:52;;;;;;;4.13;1.42;;;;;;;;;;4985601;28;20057;-69
2022/09/29 01:14:19;;;;;;;5.43;1.92;;;;;;;;;;4979683;28;20038;-71
2022/09/29 01:16:44;;;;;;;2.25;1.48;;;;;;;;;;4982983;28;20109;-70
2022/09/29 01:19:27;;;;;;;3.42;1.48;;;;;;;;;;4979783;28;20445;-71
2022/09/29 01:22:07;;;;;;;2.95;1.45;;;;;;;;;;4975089;28;20054;-71
2022/09/29 01:24:54;;;;;;;2.22;1.50;;;;;;;;;;4978548;28;20058;-69
2022/09/29 01:27:41;;;;;;;2.13;1.60;;;;;;;;;;4971567;28;20050;-70
2022/09/29 01:30:38;;;;;;;3.15;1.73;;;;;;;;;;4977014;28;20052;-70
2022/09/29 01:33:18;;;;;;;3.58;1.50;;;;;;;;;;4945592;28;20102;-69
2022/09/29 01:35:47;;;;;;;1.70;1.40;;;;;;;;;;4979548;28;20046;-72
2022/09/29 01:38:35;;;;;;;3.25;1.40;;;;;;;;;;4983502;28;20112;-69
2022/09/29 01:41:22;;;;;;;2.60;1.65;;;;;;;;;;4984701;28;20125;-69
2022/09/29 01:44:03;;;;;;;4.05;1.70;;;;;;;;;;4986102;28;20054;-69
2022/09/29 01:46:37;;;;;;;3.55;1.40;;;;;;;;;;4984824;28;20203;-70
2022/09/29 01:49:05;;;;;;;4.55;1.50;;;;;;;;;;4982595;28;20124;-69
2022/09/29 01:51:46;;;;;;;3.08;1.70;;;;;;;;;;4986542;28;20053;-70
2022/09/29 01:54:18;;;;;;;4.20;1.50;;;;;;;;;;4979484;28;20647;-69
2022/09/29 01:57:19;;;;;;;2.17;1.50;;;;;;;;;;4974886;28;20054;-69
2022/09/29 01:59:52;;;;;;;7.85;1.55;;;;;;;;;;4968279;28;20054;-69
2022/09/29 02:02:31;;;;;;;3.40;1.40;;;;;;;;;;4979310;28;20038;-69
2022/09/29 02:05:01;;;;;;;5.85;1.60;;;;;;;;;;4977656;28;20042;-69
2022/09/29 02:07:39;;;;;;;3.58;1.33;;;;;;;;;;4979652;28;20120;-70
2022/09/29 02:10:12;;;;;;;3.22;1.40;;;;;;;;;;4980544;28;20072;-70
2022/09/29 02:12:40;;;;;;;2.10;1.67;;;;;;;;;;4979296;28;20049;-70
2022/09/29 02:15:25;;;;;;;4.32;1.70;;;;;;;;;;4975949;28;20512;-70
2022/09/29 02:17:54;;;;;;;3.40;1.58;;;;;;;;;;4980910;28;20112;-70
2022/09/29 02:20:21;;;;;;;2.22;1.40;;;;;;;;;;4981687;28;20074;-69
2022/09/29 02:22:47;;;;;;;4.93;1.45;;;;;;;;;;4975062;28;20514;-69
2022/09/29 02:25:15;;;;;;;1.58;1.27;;;;;;;;;;4979949;28;20111;-70
2022/09/29 02:27:41;;;;;;;4.20;1.90;;;;;;;;;;4974087;28;20391;-69
2022/09/29 02:30:07;;;;;;;3.50;1.40;;;;;;;;;;4976945;28;20081;-70
2022/09/29 02:32:34;;;;;;;3.17;1.40;;;;;;;;;;4977897;28;20034;-71
2022/09/29 02:35:01;;;;;;;2.38;1.60;;;;;;;;;;4983472;28;20174;-70
2022/09/29 02:37:40;;;;;;;3.58;1.40;;;;;;;;;;4978471;28;20054;-70
2022/09/29 02:40:27;;;;;;;2.67;1.52;;;;;;;;;;4980344;28;20108;-70
2022/09/29 02:43:10;;;;;;;3.35;1.65;;;;;;;;;;4975955;28;20086;-70
2022/09/29 02:45:58;;;;;;;2.72;1.70;;;;;;;;;;4982706;28;20054;-69
2022/09/29 02:48:24;;;;;;;2.90;1.40;;;;;;;;;;4982802;28;20457;-69
2022/09/29 02:51:10;;;;;;;5.90;2.30;;;;;;;;;;4979889;28;20050;-69
2022/09/29 02:54:06;;;;;;;4.35;1.73;;;;;;;;;;4975974;28;20024;-69
2022/09/29 02:56:34;;;;;;;5.93;1.60;;;;;;;;;;4975520;28;20074;-71
2022/09/29 02:59:06;;;;;;;2.85;1.20;;;;;;;;;;4978173;28;20042;-69
2022/09/29 03:01:33;;;;;;;2.25;1.38;;;;;;;;;;4977844;28;20058;-70
2022/09/29 03:03:59;;;;;;;4.75;1.77;;;;;;;;;;4979908;28;20130;-69
2022/09/29 03:06:26;;;;;;;5.78;1.88;;;;;;;;;;4983849;28;20056;-71
2022/09/29 03:08:52;;;;;;;4.00;1.30;;;;;;;;;;4982706;28;20047;-71
2022/09/29 03:11:17;;;;;;;3.63;1.40;;;;;;;;;;4983441;28;20101;-71
2022/09/29 03:13:43;;;;;;;5.45;1.70;;;;;;;;;;4981509;28;20062;-71
2022/09/29 03:16:08;;;;;;;4.75;1.90;;;;;;;;;;4978669;28;20133;-71
2022/09/29 03:18:33;;;;;;;3.92;1.63;;;;;;;;;;4978963;28;20070;-70
2022/09/29 03:20:59;;;;;;;5.22;1.60;;;;;;;;;;4973605;28;20051;-70
2022/09/29 03:23:25;;;;;;;2.17;1.60;;;;;;;;;;4983334;28;20594;-70
2022/09/29 03:25:50;;;;;;;1.65;1.35;;;;;;;;;;4963365;28;20073;-71
2022/09/29 03:28:16;;;;;;;6.00;1.48;;;;;;;;;;4980180;28;20050;-70
2022/09/29 03:30:41;;;;;;;2.92;1.30;;;;;;;;;;4989384;28;20037;-70
2022/09/29 03:33:07;;;;;;;3.80;1.40;;;;;;;;;;4984621;28;20054;-72
2022/09/29 03:35:32;;;;;;;3.72;1.40;;;;;;;;;;4987181;28;20797;-70
2022/09/29 03:37:59;;;;;;;3.33;1.50;;;;;;;;;;4987477;28;20042;-70
2022/09/29 03:40:26;;;;;;;2.92;1.75;;;;;;;;;;4979793;28;20048;-71
2022/09/29 03:42:51;;;;;;;2.70;1.65;;;;;;;;;;4974082;28;20063;-71
2022/09/29 03:45:17;;;;;;;4.25;1.63;;;;;;;;;;4958859;28;20496;-73
2022/09/29 03:47:42;;;;;;;3.65;1.55;;;;;;;;;;4955674;28;20138;-73
2022/09/29 03:50:08;;;;;;;3.60;1.50;;;;;;;;;;4976579;28;20038;-71
2022/09/29 03:52:34;;;;;;;1.80;1.60;;;;;;;;;;4976182;28;20702;-70
2022/09/29 03:54:59;;;;;;;6.15;1.67;;;;;;;;;;4983828;28;20357;-70
2022/09/29 03:57:25;;;;;;;1.63;1.27;;;;;;;;;;4981803;28;20046;-70
2022/09/29 03:59:51;;;;;;;3.47;1.80;;;;;;;;;;4981820;28;20050;-70
2022/09/29 04:02:18;;;;;;;2.63;1.60;;;;;;;;;;4977027;28;20058;-71
2022/09/29 04:04:44;;;;;;;2.75;1.80;;;;;;;;;;4983660;28;20140;-71
2022/09/29 04:07:10;;;;;;;3.42;1.73;;;;;;;;;;4983718;28;20090;-70
2022/09/29 04:09:35;;;;;;;4.53;2.50;;;;;;;;;;4984858;28;20050;-71
2022/09/29 04:12:00;;;;;;;2.97;1.80;;;;;;;;;;4983137;28;20074;-71
2022/09/29 04:14:26;;;;;;;2.15;1.77;;;;;;;;;;4967225;28;20023;-70
2022/09/29 04:16:51;;;;;;;2.83;1.83;;;;;;;;;;4985790;28;20404;-69
2022/09/29 04:19:17;;;;;;;4.68;1.90;;;;;;;;;;4985565;28;20069;-70
2022/09/29 04:21:42;;;;;;;4.45;1.52;;;;;;;;;;4979511;28;20054;-69
2022/09/29 04:24:08;;;;;;;5.22;1.70;;;;;;;;;;4979205;28;20042;-69
2022/09/29 04:26:33;;;;;;;5.55;1.90;;;;;;;;;;4963748;28;20033;-69
2022/09/29 04:28:58;;;;;;;3.50;1.63;;;;;;;;;;4983341;28;20027;-71
2022/09/29 04:31:24;;;;;;;5.82;1.70;;;;;;;;;;4983095;28;20043;-71
2022/09/29 04:33:49;;;;;;;2.92;1.80;;;;;;;;;;4979636;28;20049;-72
2022/09/29 04:36:14;;;;;;;4.15;1.80;;;;;;;;;;4982183;28;20047;-71
2022/09/29 04:38:40;;;;;;;2.42;1.60;;;;;;;;;;4983451;28;20046;-71
2022/09/29 04:41:05;;;;;;;6.88;1.55;;;;;;;;;;4985477;28;20381;-71
2022/09/29 04:43:31;;;;;;;5.88;1.63;;;;;;;;;;4982986;28;20046;-71
2022/09/29 04:46:04;;;;;;;2.28;1.70;;;;;;;;;;4979913;28;20568;-69
2022/09/29 04:48:29;;;;;;;1.60;1.42;;;;;;;;;;4984043;28;20497;-71
2022/09/29 04:50:55;;;;;;;2.03;1.60;;;;;;;;;;4981317;28;20053;-69
2022/09/29 04:53:20;;;;;;;4.30;1.58;;;;;;;;;;4981299;28;20664;-71
2022/09/29 04:55:46;;;;;;;2.28;1.67;;;;;;;;;;4965481;28;20765;-69
2022/09/29 04:58:11;;;;;;;5.50;1.80;;;;;;;;;;4983870;28;20038;-71
2022/09/29 05:00:36;;;;;;;2.78;2.00;;;;;;;;;;4983821;28;20059;-71
2022/09/29 05:03:02;;;;;;;3.38;1.55;;;;;;;;;;4978372;28;20751;-70
2022/09/29 05:05:28;;;;;;;2.30;1.98;;;;;;;;;;4984968;28;20419;-71
2022/09/29 05:07:53;;;;;;;7.93;1.90;;;;;;;;;;4985641;28;20404;-71
2022/09/29 05:10:18;;;;;;;6.95;1.98;;;;;;;;;;4981812;28;20046;-71
2022/09/29 05:12:50;;;;;;;3.63;1.70;;;;;;;;;;4983353;28;20050;-71
2022/09/29 05:15:17;;;;;;;2.80;1.80;;;;;;;;;;4980918;28;20070;-70
2022/09/29 05:17:43;;;;;;;1.88;1.67;;;;;;;;;;4978637;28;20050;-70
2022/09/29 05:20:09;;;;;;;2.58;1.90;;;;;;;;;;4969696;28;20053;-66
2022/09/29 05:22:34;;;;;;;4.75;1.60;;;;;;;;;;4978077;28;20441;-64
2022/09/29 05:24:59;;;;;;;4.10;2.08;;;;;;;;;;4980528;28;20194;-64
2022/09/29 05:27:25;;;;;;;3.80;2.10;;;;;;;;;;4963762;28;20055;-64
2022/09/29 05:29:50;;;;;;;3.10;1.95;;;;;;;;;;4982444;28;20061;-64
2022/09/29 05:32:16;;;;;;;6.88;2.50;;;;;;;;;;4983966;28;20114;-64
2022/09/29 05:34:41;;;;;;;5.47;2.28;;;;;;;;;;4980148;28;20142;-64
2022/09/29 05:37:06;;;;;;;4.25;3.15;;;;;;;;;;4977241;28;20046;-65
2022/09/29 05:39:33;;;;;;;6.38;2.67;;;;;;;;;;4978001;28;20145;-65
2022/09/29 05:42:08;;;;;;;6.25;3.17;;;;;;;;;;4982152;28;20045;-65
2022/09/29 05:44:34;;;;;;;4.45;2.70;;;;;;;;;;4980776;28;20033;-64
2022/09/29 05:46:59;;;;;;;4.22;2.50;;;;;;;;;;4980591;28;20026;-64
2022/09/29 05:49:25;;;;;;;5.85;2.70;;;;;;;;;;4978689;28;20054;-64
2022/09/29 05:51:51;;;;;;;4.10;2.63;;;;;;;;;;4982232;28;21484;-64
2022/09/29 05:54:16;;;;;;;5.25;2.42;;;;;;;;;;4981319;28;20058;-64
2022/09/29 05:56:42;;;;;;;5.20;2.72;;;;;;;;;;4982010;28;20073;-64
2022/09/29 05:59:08;;;;;;;6.75;3.80;;;;;;;;;;4980920;28;20061;-64
2022/09/29 06:01:34;;;;;;;9.23;3.25;;;;;;;;;;4980512;28;20112;-64
2022/09/29 06:04:00;;;;;;;4.00;2.42;;;;;;;;;;4981615;28;20706;-64
2022/09/29 06:06:27;;;;;;;4.95;2.80;;;;;;;;;;4964700;28;20459;-63
2022/09/29 06:08:53;;;;;;;4.65;3.15;;;;;;;;;;4981706;28;20138;-63
2022/09/29 06:11:22;;;;;;;5.88;3.20;;;;;;;;;;4980309;28;20089;-61
2022/09/29 06:13:49;;;;;;;6.22;3.63;;;;;;;;;;4980310;28;20066;-61
2022/09/29 06:16:18;;;;;;;11.00;3.78;;;;;;;;;;4982428;28;20121;-64
2022/09/29 06:18:44;;;;;;;5.82;3.38;;;;;;;;;;4979178;28;20047;-64
2022/09/29 06:21:12;;;;;;;9.88;3.33;;;;;;;;;;4983062;28;20405;-61
2022/09/29 06:23:38;;;;;;;6.80;3.60;;;;;;;;;;4979758;28;20041;-61
2022/09/29 06:26:07;;;;;;;8.60;3.30;;;;;;;;;;4980029;28;20023;-61
2022/09/29 06:28:32;;;;;;;11.75;3.35;;;;;;;;;;4981496;28;20060;-61
2022/09/29 06:31:04;;;;;;;11.07;3.60;;;;;;;;;;4981129;28;20039;-65
2022/09/29 06:33:31;;;;;;;6.25;3.05;;;;;;;;;;4979252;28;20055;-65
2022/09/29 06:38:41;;;;;;;8.77;3.97;;;;;;;;;;4984767;28;20118;-63
2022/09/29 06:41:07;;;;;;;19.48;5.50;;;;;;;;;;4980886;28;20202;-63
2022/09/29 06:43:33;;;;;;;8.98;5.63;;;;;;;;;;4982875;28;20042;-64
2022/09/29 06:45:58;;;;;;;8.68;4.88;;;;;;;;;;4984830;28;20039;-64
2022/09/29 06:48:24;;;;;;;6.28;4.40;;;;;;;;;;4983126;28;20052;-65
2022/09/29 06:50:49;;;;;;;5.45;4.15;;;;;;;;;;4986559;28;20046;-65
2022/09/29 06:53:15;;;;;;;6.88;4.60;;;;;;;;;;4985342;28;20428;-65
2022/09/29 06:55:40;;;;;;;5.85;4.15;;;;;;;;;;4986029;28;20046;-65
2022/09/29 06:58:06;;;;;;;5.82;4.05;;;;;;;;;;4984351;28;20208;-63
2022/09/29 07:00:33;;;;;;;30.95;4.40;;;;;;;;;;4984850;28;20058;-64
2022/09/29 07:02:59;;;;;;;10.30;4.03;;;;;;;;;;4980468;28;20122;-65
2022/09/29 07:05:24;;;;;;;41.08;5.00;;;;;;;;;;4985448;28;20176;-64
2022/09/29 07:07:50;;;;;;;9.02;4.50;;;;;;;;;;4980281;28;20030;-64
2022/09/29 07:10:15;;;;;;;8.10;4.78;;;;;;;;;;4978179;28;20580;-65
2022/09/29 07:12:45;;;;;;;9.05;4.65;;;;;;;;;;4973947;28;20102;-65
2022/09/29 07:15:11;;;;;;;6.60;4.70;;;;;;;;;;4981010;28;20097;-65
2022/09/29 07:17:36;;;;;;;10.60;4.70;;;;;;;;;;4985015;28;20068;-65
2022/09/29 07:20:02;;;;;;;5.68;4.28;;;;;;;;;;4986423;28;20121;-66
2022/09/29 07:22:28;;;;;;;5.75;4.30;;;;;;;;;;4981817;28;20050;-64
2022/09/29 07:24:54;;;;;;;10.15;4.68;;;;;;;;;;4985173;28;20109;-64
2022/09/29 07:27:22;;;;;;;6.57;4.07;;;;;;;;;;4985028;28;20176;-64
2022/09/29 07:29:51;;;;;;;7.72;3.70;;;;;;;;;;4980833;28;22731;-64
2022/09/29 07:32:18;;;;;;;6.20;4.35;;;;;;;;;;4982730;28;20031;-65
2022/09/29 07:34:43;;;;;;;7.45;4.90;;;;;;;;;;4982885;28;20050;-64
2022/09/29 07:37:09;;;;;;;10.30;4.90;;;;;;;;;;4983125;28;20047;-65
2022/09/29 07:39:35;;;;;;;10.77;5.80;;;;;;;;;;4981191;28;20050;-65
2022/09/29 07:42:02;;;;;;;12.27;5.70;;;;;;;;;;4981581;28;20055;-64
2022/09/29 07:44:28;;;;;;;8.68;4.85;;;;;;;;;;4980704;28;20049;-64
2022/09/29 07:46:54;;;;;;;11.02;5.60;;;;;;;;;;4984900;28;20031;-64
2022/09/29 07:49:19;;;;;;;18.35;7.78;;;;;;;;;;4977634;28;20051;-65
2022/09/29 07:51:45;;;;;;;17.88;8.57;;;;;;;;;;4981136;28;20413;-65
2022/09/29 07:54:10;;;;;;;22.73;9.77;;;;;;;;;;4983140;28;20065;-65
2022/09/29 07:56:36;;;;;;;19.38;10.00;;;;;;;;;;4981755;28;20085;-64
2022/09/29 07:59:02;;;;;;;24.85;10.20;;;;;;;;;;4981732;28;20114;-65
2022/09/29 08:01:28;;;;;;;20.70;10.65;;;;;;;;;;4985419;28;20133;-65
2022/09/29 08:03:54;;;;;;;22.38;10.32;;;;;;;;;;4981785;28;20446;-64
2022/09/29 08:06:21;;;;;;;19.70;10.15;;;;;;;;;;4983898;28;20512;-64
2022/09/29 08:08:47;;;;;;;17.27;10.32;;;;;;;;;;4983904;28;20064;-65
2022/09/29 08:11:16;;;;;;;17.75;9.57;;;;;;;;;;4979661;28;20686;-64
2022/09/29 08:13:41;;;;;;;21.40;10.73;;;;;;;;;;4977060;28;20054;-64
2022/09/29 08:16:10;;;;;;;26.58;11.00;;;;;;;;;;4981997;28;20573;-67
2022/09/29 08:18:36;;;;;;;21.80;10.82;;;;;;;;;;4977242;28;20042;-64
2022/09/29 08:21:03;;;;;;;16.77;10.40;;;;;;;;;;4987257;28;20045;-66
2022/09/29 08:23:30;;;;;;;30.63;11.45;;;;;;;;;;4982264;28;20042;-65
2022/09/29 08:26:07;;;;;;;27.85;11.90;;;;;;;;;;4981488;28;20432;-65
2022/09/29 08:28:35;;;;;;;19.40;11.55;;;;;;;;;;4978969;28;20064;-65
2022/09/29 08:31:07;;;;;;;29.88;12.05;;;;;;;;;;4982418;28;20152;-65
2022/09/29 08:33:33;;;;;;;22.97;11.93;;;;;;;;;;4981072;28;20054;-65
2022/09/29 08:35:59;;;;;;;24.00;11.90;;;;;;;;;;4984167;28;20034;-64
2022/09/29 08:38:26;;;;;;;22.17;11.13;;;;;;;;;;4979479;28;20034;-64
2022/09/29 08:40:54;;;;;;;20.30;11.00;;;;;;;;;;4969471;28;20117;-64
2022/09/29 08:43:29;;;;;;;16.67;10.05;;;;;;;;;;4980859;28;20054;-65
2022/09/29 08:46:00;;;;;;;20.30;9.85;;;;;;;;;;4982787;28;20042;-65
2022/09/29 08:48:31;;;;;;;21.45;10.88;;;;;;;;;;4981867;28;20047;-65
2022/09/29 08:50:59;;;;;;;24.20;11.57;;;;;;;;;;4965177;28;20042;-65
2022/09/29 08:53:27;;;;;;;16.88;10.75;;;;;;;;;;4981868;28;20038;-64
2022/09/29 08:56:01;;;;;;;20.40;11.85;;;;;;;;;;4982276;28;20100;-65
2022/09/29 08:58:26;;;;;;;;;;;;;;;;;;4981796;28;20501;-64
2022/09/29 09:01:19;;;;;;;22.15;13.27;;;;;;;;;;4982165;28;19921;-64
2022/09/29 09:04:17;;;;;;;26.05;12.15;;;;;;;;;;4979294;28;20050;-64
2022/09/29 09:07:00;;;;;;;21.17;12.00;;;;;;;;;;4968853;28;20069;-64
2022/09/29 09:09:48;;;;;;;25.52;12.95;;;;;;;;;;4979606;28;20387;-65
2022/09/29 09:12:44;;;;;;;22.23;12.68;;;;;;;;;;4980937;28;20472;-64
2022/09/29 09:15:18;;;;;;;20.65;12.50;;;;;;;;;;4981470;28;20045;-65
2022/09/29 09:17:57;;;;;;;29.27;12.48;;;;;;;;;;4982120;28;20116;-64
2022/09/29 09:20:33;;;;;;;23.15;12.07;;;;;;;;;;4978474;28;20065;-64
2022/09/29 09:22:59;;;;;;;30.33;12.38;;;;;;;;;;4985150;28;20045;-64
2022/09/29 09:25:28;;;;;;;24.67;13.35;;;;;;;;;;4981941;28;20062;-64
2022/09/29 09:28:16;;;;;;;22.48;12.52;;;;;;;;;;4964298;28;20413;-64
2022/09/29 09:31:13;;;;;;;28.90;11.60;;;;;;;;;;4981286;28;20042;-64
2022/09/29 09:33:58;;;;;;;21.77;11.57;;;;;;;;;;4975977;28;20497;-64
2022/09/29 09:36:35;;;;;;;20.23;11.57;;;;;;;;;;4976635;28;20045;-64
2022/09/29 09:39:15;;;;;;;19.40;11.20;;;;;;;;;;4983046;28;20062;-64
2022/09/29 09:41:43;;;;;;;25.35;11.00;;;;;;;;;;4978265;28;20048;-64
2022/09/29 09:44:18;;;;;;;30.63;13.07;;;;;;;;;;4977583;28;20030;-64
2022/09/29 09:47:22;;;;;;;26.45;11.45;;;;;;;;;;4977855;28;20105;-63
2022/09/29 09:50:02;;;;;;;29.23;11.75;;;;;;;;;;4978863;28;20050;-64
2022/09/29 09:52:36;;;;;;;26.98;11.00;;;;;;;;;;4976844;28;20050;-64
2022/09/29 09:55:09;;;;;;;25.23;11.32;;;;;;;;;;4982179;28;20045;-65
2022/09/29 09:57:34;;;;;;;;;;;;;;;;;;4979014;28;20113;-63
2022/09/29 10:00:21;;;;;;;23.83;11.30;;;;;;;;;;4981295;28;20000;-65
2022/09/29 10:02:49;;;;;;;21.58;10.13;;;;;;;;;;4981103;28;20305;-65
2022/09/29 10:05:35;;;;;;;21.00;10.20;;;;;;;;;;4983312;28;20044;-65
2022/09/29 10:08:02;;;;;;;22.52;10.00;;;;;;;;;;4976596;28;20053;-56
2022/09/29 10:10:29;;;;;;;17.83;8.25;;;;;;;;;;4974395;28;20056;-58
2022/09/29 10:13:05;;;;;;;14.80;7.78;;;;;;;;;;4973725;28;20058;-58
2022/09/29 10:15:41;;;;;;;12.68;8.00;;;;;;;;;;4977670;28;20059;-54
2022/09/29 10:18:14;;;;;;;14.30;7.50;;;;;;;;;;4976645;28;20053;-54
2022/09/29 10:20:42;;;;;;;14.50;7.10;;;;;;;;;;4973358;28;20046;-57
2022/09/29 10:23:26;;;;;;;11.23;7.25;;;;;;;;;;4973039;28;20046;-55
2022/09/29 10:25:56;;;;;;;16.67;8.32;;;;;;;;;;4973845;28;20093;-57
2022/09/29 10:28:23;;;;;;;19.10;8.52;;;;;;;;;;4978663;28;20065;-56
2022/09/29 10:30:48;;;;;;;21.52;10.88;;;;;;;;;;4980683;28;20046;-58
2022/09/29 10:33:17;;;;;;;18.92;9.88;;;;;;;;;;4980421;28;20052;-60
2022/09/29 10:35:45;;;;;;;18.15;9.57;;;;;;;;;;4980397;28;20105;-58
2022/09/29 10:38:37;;;;;;;20.48;10.82;;;;;;;;;;4976716;28;20065;-57
2022/09/29 10:41:05;;;;;;;28.40;11.23;;;;;;;;;;4974844;28;20283;-56
2022/09/29 10:43:39;;;;;;;21.08;11.18;;;;;;;;;;4977452;28;20058;-58
2022/09/29 10:46:27;;;;;;;20.20;9.80;;;;;;;;;;4976006;28;20186;-59
2022/09/29 10:49:13;;;;;;;18.88;10.45;;;;;;;;;;4979504;28;20513;-58
2022/09/29 10:51:41;;;;;;;19.52;11.07;;;;;;;;;;4978094;28;20096;-59
2022/09/29 10:54:09;;;;;;;17.48;11.20;;;;;;;;;;4978070;28;20524;-58
2022/09/29 10:56:35;;;;;;;20.48;11.85;;;;;;;;;;4971615;28;20061;-59
2022/09/29 10:59:01;;;;;;;35.03;14.00;;;;;;;;;;4959781;28;20037;-60
2022/09/29 11:01:30;;;;;;;23.05;12.52;;;;;;;;;;4974991;28;20069;-59
2022/09/29 11:04:00;;;;;;;14.60;8.80;;;;;;;;;;4975341;28;20043;-60
2022/09/29 11:06:34;;;;;;;22.90;12.25;;;;;;;;;;4973572;28;20038;-58
2022/09/29 11:09:01;;;;;;;19.33;10.88;;;;;;;;;;4976787;28;20085;-58
2022/09/29 11:11:28;;;;;;;21.23;10.60;;;;;;;;;;4977471;28;20448;-59
2022/09/29 11:13:55;;;;;;;20.75;11.10;;;;;;;;;;4978194;28;20038;-59
2022/09/29 11:16:29;;;;;;;18.45;11.10;;;;;;;;;;4975396;28;20084;-59
2022/09/29 11:18:58;;;;;;;20.08;10.52;;;;;;;;;;4976277;28;20647;-60
2022/09/29 11:21:29;;;;;;;20.70;10.65;;;;;;;;;;4975991;28;20054;-60
2022/09/29 11:24:10;;;;;;;20.48;10.80;;;;;;;;;;4977038;28;20051;-57
2022/09/29 11:26:38;;;;;;;20.67;12.10;;;;;;;;;;4981074;28;20030;-59
2022/09/29 11:29:18;;;;;;;18.63;10.30;;;;;;;;;;4977166;28;20050;-59
2022/09/29 11:32:02;;;;;;;21.02;10.38;;;;;;;;;;4983695;28;20089;-58
2022/09/29 11:34:51;;;;;;;17.02;9.43;;;;;;;;;;4980893;28;20038;-57
2022/09/29 11:37:50;;;;;;;18.58;9.25;;;;;;;;;;4984588;28;20049;-59
2022/09/29 11:40:58;;;;;;;18.40;9.48;;;;;;;;;;4977993;28;20046;-59
2022/09/29 11:43:26;;;;;;;13.55;8.52;;;;;;;;;;4979359;28;20129;-59
2022/09/29 11:45:59;;;;;;;20.42;9.00;;;;;;;;;;4977654;28;20133;-59
2022/09/29 11:48:41;;;;;;;13.70;8.63;;;;;;;;;;4983451;28;20068;-57
2022/09/29 11:51:48;;;;;;;13.93;8.50;;;;;;;;;;4984742;28;20382;-57
2022/09/29 11:54:56;;;;;;;15.13;7.82;;;;;;;;;;4901908;29;20075;-58
2022/09/29 11:57:45;;;;;;;13.23;8.18;;;;;;;;;;4978556;28;20050;-59
2022/09/29 12:00:14;;;;;;;17.67;8.20;;;;;;;;;;4980216;28;20054;-59
2022/09/29 12:03:13;;;;;;;21.02;8.38;;;;;;;;;;4983503;28;20034;-59
2022/09/29 12:06:04;;;;;;;12.43;7.57;;;;;;;;;;4983848;28;20041;-59
2022/09/29 12:09:18;;;;;;;14.98;7.75;;;;;;;;;;4967699;28;20413;-60
2022/09/29 12:12:06;;;;;;;14.15;7.20;;;;;;;;;;4967108;28;20077;-59
2022/09/29 12:14:54;;;;;;;13.75;7.13;;;;;;;;;;4977650;28;20058;-61
2022/09/29 12:17:20;;;;;;;12.95;6.72;;;;;;;;;;4978579;28;20040;-60
2022/09/29 12:19:57;;;;;;;11.40;6.30;;;;;;;;;;4981374;28;20559;-60
2022/09/29 12:22:22;;;;;;;11.70;6.53;;;;;;;;;;4976795;28;20046;-58
2022/09/29 12:24:54;;;;;;;9.77;5.75;;;;;;;;;;4974210;28;20055;-60
2022/09/29 12:27:26;;;;;;;9.35;5.38;;;;;;;;;;4979049;28;20435;-60
2022/09/29 12:30:15;;;;;;;12.88;6.75;;;;;;;;;;4983097;28;20086;-60
2022/09/29 12:32:56;;;;;;;11.40;6.28;;;;;;;;;;4958275;28;20053;-60
2022/09/29 12:35:33;;;;;;;12.40;6.97;;;;;;;;;;4980823;28;20037;-59
2022/09/29 12:38:44;;;;;;;11.07;6.35;;;;;;;;;;4978670;28;20050;-60
2022/09/29 12:41:22;;;;;;;9.80;6.30;;;;;;;;;;4971715;28;20053;-59
2022/09/29 12:44:05;;;;;;;14.73;5.82;;;;;;;;;;4977827;28;20816;-58
2022/09/29 12:46:48;;;;;;;8.43;5.60;;;;;;;;;;4975351;28;20401;-57
2022/09/29 12:49:13;;;;;;;9.93;5.25;;;;;;;;;;4981120;28;20056;-58
2022/09/29 12:51:44;;;;;;;9.50;5.45;;;;;;;;;;4986009;28;20042;-59
2022/09/29 12:54:28;;;;;;;12.73;4.95;;;;;;;;;;4980946;28;20069;-58
2022/09/29 12:57:00;;;;;;;9.77;4.60;;;;;;;;;;4972535;28;20074;-59
2022/09/29 12:59:40;;;;;;;8.07;4.57;;;;;;;;;;4979221;28;20057;-59
2022/09/29 13:02:51;;;;;;;12.25;5.20;;;;;;;;;;4979228;28;20030;-58
2022/09/29 13:05:34;;;;;;;7.82;4.35;;;;;;;;;;4960281;28;20038;-57
2022/09/29 13:08:18;;;;;;;6.43;4.18;;;;;;;;;;4975771;28;20112;-59
2022/09/29 13:10:53;;;;;;;7.53;3.92;;;;;;;;;;4974206;28;20065;-59
2022/09/29 13:13:27;;;;;;;6.72;4.05;;;;;;;;;;4974545;28;20057;-55
2022/09/29 13:16:11;;;;;;;6.03;4.22;;;;;;;;;;4978871;28;20042;-58
2022/09/29 13:18:49;;;;;;;6.40;4.05;;;;;;;;;;4980406;28;20050;-57
2022/09/29 13:21:17;;;;;;;8.80;4.60;;;;;;;;;;4981514;28;20914;-59
2022/09/29 13:23:52;;;;;;;11.68;4.03;;;;;;;;;;4980334;28;20054;-58
2022/09/29 13:26:20;;;;;;;6.85;3.67;;;;;;;;;;4977777;28;20030;-58
2022/09/29 13:28:59;;;;;;;6.43;3.63;;;;;;;;;;4977570;28;20038;-59
2022/09/29 13:31:28;;;;;;;6.25;3.90;;;;;;;;;;4981067;28;20042;-59
2022/09/29 13:33:56;;;;;;;9.23;3.88;;;;;;;;;;4979323;28;20388;-59
2022/09/29 13:36:28;;;;;;;6.93;3.80;;;;;;;;;;4974244;28;20144;-59
2022/09/29 13:38:57;;;;;;;7.40;3.28;;;;;;;;;;4972641;28;20049;-59
2022/09/29 13:41:22;;;;;;;6.53;3.40;;;;;;;;;;4974637;28;20030;-63
2022/09/29 13:43:50;;;;;;;7.90;3.55;;;;;;;;;;4981536;28;20037;-59
2022/09/29 13:46:31;;;;;;;8.88;3.65;;;;;;;;;;4978508;28;20193;-59
2022/09/29 13:49:08;;;;;;;6.20;3.40;;;;;;;;;;4972648;28;20054;-57
2022/09/29 13:51:59;;;;;;;6.75;2.53;;;;;;;;;;4973327;28;20065;-59
2022/09/29 13:54:40;;;;;;;13.82;3.63;;;;;;;;;;4968939;28;20056;-59
2022/09/29 13:57:12;;;;;;;8.02;3.00;;;;;;;;;;4971960;28;20073;-59
2022/09/29 13:59:43;;;;;;;7.57;2.90;;;;;;;;;;4973034;28;20085;-59
2022/09/29 14:02:36;;;;;;;7.13;2.80;;;;;;;;;;4975397;28;20030;-62
2022/09/29 14:05:03;;;;;;;;;;;;;;;;;;4973123;28;20062;-62
2022/09/29 14:07:49;;;;;;;6.60;2.10;;;;;;;;;;4976044;28;19925;-62
2022/09/29 14:10:26;;;;;;;4.50;2.22;;;;;;;;;;4973220;28;20080;-62
2022/09/29 14:13:05;;;;;;;5.50;2.33;;;;;;;;;;4974181;28;20490;-63
2022/09/29 14:15:38;;;;;;;3.30;2.17;;;;;;;;;;4971653;28;20469;-62
2022/09/29 14:18:14;;;;;;;3.65;2.13;;;;;;;;;;4970766;28;20058;-62
2022/09/29 14:20:57;;;;;;;4.60;1.98;;;;;;;;;;4968257;28;20100;-63
2022/09/29 14:23:55;;;;;;;6.40;2.17;;;;;;;;;;4978268;28;20038;-62
2022/09/29 14:26:42;;;;;;;5.57;2.50;;;;;;;;;;4930891;28;20054;-56
2022/09/29 14:29:15;;;;;;;8.30;2.67;;;;;;;;;;4973056;28;20050;-56
2022/09/29 14:31:44;;;;;;;8.85;3.17;;;;;;;;;;4972502;28;20137;-63
2022/09/29 14:34:14;;;;;;;5.50;2.78;;;;;;;;;;4973804;28;20138;-62
2022/09/29 14:36:44;;;;;;;8.98;3.30;;;;;;;;;;4976823;28;20054;-64
2022/09/29 14:39:10;;;;;;;7.53;3.10;;;;;;;;;;4976620;28;20062;-64
2022/09/29 14:41:42;;;;;;;9.65;3.40;;;;;;;;;;4978843;28;20109;-64
2022/09/29 14:44:11;;;;;;;6.25;3.15;;;;;;;;;;4969005;28;20023;-64
2022/09/29 14:52:56;;;;;;;12.27;3.95;;;;;;;;;;4969898;28;20484;-65
2022/09/29 14:55:51;;;;;;;7.20;3.33;;;;;;;;;;4969332;28;20507;-64
2022/09/29 14:58:29;;;;;;;16.17;4.00;;;;;;;;;;4975370;28;20138;-63
2022/09/29 15:01:21;;;;;;;8.30;3.83;;;;;;;;;;4973235;28;20149;-66
2022/09/29 15:03:49;;;;;;;11.02;5.50;;;;;;;;;;4978129;28;20385;-66
2022/09/29 15:06:20;;;;;;;9.85;3.40;;;;;;;;;;4974711;28;20053;-58
2022/09/29 15:09:12;;;;;;;9.27;3.50;;;;;;;;;;4979740;28;20058;-59
2022/09/29 15:11:48;;;;;;;8.25;3.47;;;;;;;;;;4979885;28;20043;-59
2022/09/29 15:14:19;;;;;;;7.13;2.78;;;;;;;;;;4978780;28;20045;-60
2022/09/29 15:16:57;;;;;;;6.00;3.35;;;;;;;;;;4979443;28;20057;-59